Anahola, HI

6:55 PM HST on September 15, 2014 (GMT -1000)
WAILUA HOMESTEADS | Change Station
CLOSE
Current Station
Personal Weather Station
Location: Kapaa, HI
Elevation: 361 ft
Nearby Weather Stations
Active Advisory: High Surf Advisory Active Notice: Record Report

Elev 361 ft 22.07 °N, 159.36 °W | Updated 46 seconds ago

Partly Cloudy
Partly Cloudy
76.8 °F
Feels Like 78 °F
N
0.0
Wind Variable Wind from NNE
Gusts 4.0 mph

Today
High -- | Low -- °F
--% Chance of Precip.
Yesterday
High -- | Low -- °F
Precip. -- in
6:24 AM 6:40 PM
Waning Gibbous, 49% visible
Pressure 29.92 in
Visibility 10.0 miles
Clouds Few 2200 ft
Heat Index 78 °F
Dew Point 51 °F
Humidity 41%
Rainfall 0.16 in
Snow Depth Not available.
UV 0.0 out of 12
Pollen Not available.
Air Quality Not available.
Flu Activity Not available.
METAR PHLI 160353Z 03010KT 10SM FEW022 28/22 A2993 RMK AO2 SLP132 T02780222 $

More Conditions Fewer Conditions

Pressure 29.92 in
Visibility 10.0 miles
Clouds Few 2200 ft
Heat Index 78 °F
Dew Point 51 °F
Humidity 41%
Rainfall 0.16 in
Snow Depth Not available.
UV 0.0 out of 12
Pollen Not available.
Air Quality Not available.
Flu Activity Not available.
METAR PHLI 160353Z 03010KT 10SM FEW022 28/22 A2993 RMK AO2 SLP132 T02780222 $

More Conditions Fewer Conditions

10-Day Weather Forecast

Almanac

Astronomy

Sep. 15, 2014 Rise Set
Actual Time 6:24 AM HST 6:40 PM HST
Civil Twilight 6:01 AM HST 7:02 PM HST
Nautical Twilight 5:35 AM HST 7:28 PM HST
Astronomical Twilight 5:09 AM HST 7:55 PM HST
Moon No Moon Rise 12:53 PM HST (9/15)
Length of Visible Light 13h 00m
Length of Day
12h 16m
Tomorrow will be 1m 16s shorter.
Waning Gibbous, 49% of the Moon is Illuminated
Sep 16
Waning Gibbous
Sep 24
New
Oct 1
First Quarter
Oct 8
Full
Oct 15
Last Quarter

Yesterday's Extremes

State Highs State Lows

Community

WunderPhotos

Upload Photos

1,753,702 photos uploaded!

Nearby

Snow Depth

Station Depth Elevation
No new snow has been reported.

Earthquake Activity

City Distance Mag. Time & Date
No recent earthquake activity has been reported nearby.
Minimum magnitude displayed is 2.5.

Coastal Water Temperatures

Place Temperature
No Stations Reporting

Nearby Weather Stations